x

West Sea Otter (46204) Wave Buoy

7:00 - Thu 18th Dec 2014 All times are PST. -8 hours from GMT.

  • Sig Wave height 15.7ft
  • Peak Period 10s
  • Wind
    36mph, 47mph gusts
  • Sea Temp 51°f
  • Luft Temp 48°f
  • Sea Pressure 993.3mb
  • West Sea Otter
  • West Sea Otter

More Historic Weather Station data

Upgrade to MSW Pro to gain access to the past 30 days of data for over 8000 Wavebouys and Weather Stations around the globe.

Join Pro

Comparision Forecast

View Surf forecast
   
Do 12/18 7:00 15.5ft 10s 36 47 mph 993.3mb 51f 48f
6:00 16.5ft 8s 36 51 mph 993.3mb 51f 47f
5:00 16.5ft 8s 43 56 mph 992.4mb 51f 48f
4:00 15.5ft 10s 47 56 mph 991.8mb 51f 48f
3:00 16ft 9s 47 56 mph 992.5mb 51f 48f
2:00 17ft 8s 47 58 mph 993.7mb 51f 48f
1:00 17.5ft 8s 43 54 mph 994.8mb 51f 48f
12:00 16.5ft 8s 45 51 mph 996.2mb 50f 48f
11:00 16ft 8s 40 51 mph 997.3mb 50f 48f
10:00 15.5ft 7s 43 54 mph 998mb 50f 48f
9:00 14.5ft 8s 43 56 mph 998mb 50f 48f
8:00 13.5ft 7s 45 56 mph 998.5mb 50f 48f
7:00 13ft 7s 40 51 mph 999.7mb 50f 48f
6:00 12ft 6s 40 49 mph 1001.2mb 50f 48f
5:00 11.5ft 6s 36 45 mph 1002.6mb 50f 47f
4:00 10.5ft 12s 36 45 mph 1003.8mb 50f 47f
3:00 11ft 12s 31 40 mph 1004.9mb 50f 47f
2:00 10.5ft 12s 31 36 mph 1005.6mb 50f 47f
1:00 10ft 13s 29 34 mph 1006.1mb 50f 47f
12:00 9.5ft 14s 27 36 mph 1007.1mb 50f 47f
Mi 12/17 11:00 10ft 13s 27 31 mph 1007.6mb 50f 47f
10:00 10ft 14s 27 31 mph 1007.9mb 50f 47f
9:00 9ft 14s 22 29 mph 1008.2mb 50f 47f
8:00 8.5ft 10s 22 29 mph 1008.4mb 50f 48f
7:00 8ft 14s 20 25 mph 1008.7mb 50f 47f
6:00 7.5ft 12s 18 22 mph 1009mb 50f 47f
5:00 7ft 13s 16 20 mph 1009.1mb 50f 47f
4:00 8ft 14s 16 18 mph 1009.1mb 50f 47f
3:00 7ft 15s 13 18 mph 1009.1mb 50f 47f
2:00 8ft 14s 13 18 mph 1009.1mb 50f 47f
1:00 8ft 15s 13 16 mph 1009.2mb 50f 47f
12:00 8ft 13s 13 16 mph 1009.3mb 50f 48f
11:00 8ft 15s 9 13 mph 1009.2mb 50f 47f
10:00 9ft 13s 11 13 mph 1009.1mb 50f 47f
9:00 9ft 14s 11 13 mph 1008.8mb 50f 46f
8:00 9ft 14s 7 11 mph 1008.8mb 50f 46f
7:00 9ft 14s 4 7 mph 1008.8mb 50f 46f
6:00 8.5ft 10s 2 7 mph 1008.9mb 50f 46f
5:00 8.5ft 15s 7 11 mph 1008.7mb 50f 45f
4:00 9ft 14s 4 9 mph 1008.5mb 50f 45f
3:00 8.5ft 12s 4 7 mph 1008.1mb 50f 45f
2:00 9ft 14s 7 11 mph 1007.3mb 50f 45f
1:00 10ft 14s 9 11 mph 1006.9mb 50f 46f
12:00 10ft 14s 11 13 mph 1006.5mb 50f 46f
Di 12/16 11:00 11.5ft 13s 16 20 mph 1006.2mb 50f 46f
10:00 13ft 14s 11 16 mph 1005.9mb 50f 46f
9:00 12ft 12s 13 16 mph 1005.4mb 50f 45f
8:00 11.5ft 11s 16 18 mph 1005.6mb 51f 44f
7:00 11ft 10s 16 18 mph 1006mb 51f 44f
6:00 10.5ft 12s 16 18 mph 1006.1mb 51f 44f
5:00 9.5ft 10s 16 20 mph 1006.2mb 51f 44f
4:00 10ft 11s 20 25 mph 1005.9mb 51f 46f
3:00 10ft 11s 13 20 mph 1004.6mb 51f 48f
2:00 10.5ft 12s 27 36 mph 1004.3mb 51f 47f
1:00 11ft 12s 25 31 mph 1004.5mb 51f 47f
12:00 11.5ft 6s 34 45 mph 1003.9mb 51f 47f
11:00 11ft 12s 34 40 mph 1003.9mb 51f 47f
10:00 12ft 12s 34 43 mph 1003.9mb 51f 47f
9:00 12ft 7s 34 40 mph 1003.6mb 51f 47f
8:00 11ft 11s 34 40 mph 1003.6mb 51f 47f
7:00 11ft 7s 36 45 mph 1003.2mb 51f 48f
6:00  -   -  36
mph
1003.4mb - 48f
5:00 12ft 12s 36 45 mph 1003.2mb 51f 49f
4:00 13ft 7s 31 38 mph 1003.8mb 51f 48f
3:00 11.5ft 10s 29 36 mph 1004mb 51f 49f
2:00 13ft 12s 36 45 mph 1003.8mb 51f 49f
1:00 12ft 11s 36 45 mph 1004mb 51f 47f
12:00 12ft 10s 36 45 mph 1004.1mb 51f 47f
Mo 12/15 11:00 13.5ft 7s 36 43 mph 1004.5mb 51f 47f
10:00 13.5ft 11s 36 43 mph 1004.5mb 51f 47f
9:00 13.5ft 7s 34 43 mph 1004.5mb 51f 47f
7:00 15.5ft 8s 38 47 mph 1004.5mb 51f 47f
6:00 15ft 8s 40 47 mph 1004.6mb 51f 48f
5:00 16ft 8s 40 49 mph 1004.6mb 51f 48f
4:00 16.5ft 14s 38 47 mph 1004.8mb 51f 48f
3:00 17.5ft 14s 40 49 mph 1004.5mb 51f 47f
2:00 17.5ft 14s 38 47 mph 1004.6mb 51f 48f
1:00 16ft 11s 43 51 mph 1004.5mb 51f 48f
12:00 16.5ft 11s 36 47 mph 1004.6mb 51f 49f
11:00 15.5ft 15s 38 47 mph 1004.7mb 51f 49f
10:00 15.5ft 12s 38 47 mph 1004.7mb 51f 49f
9:00 15ft 11s 40 49 mph 1004.5mb 51f 49f
8:00 15ft 12s 38 47 mph 1004.2mb 51f 49f
7:00  -   -  38
mph
- - -
6:00 15ft 15s 38 47 mph 1004.6mb 51f 49f